This is the latest recevied weather packets stored in our database for station/object HK6REC-20. If no packets are shown the sender has not sent any weather packets the latest 1 day(s).
| Time | Temp. | Humidity | Pressure | Rain* | Wind** | Luminosity | Snow |
|---|---|---|---|---|---|---|---|
| 1778077016 | 21.11° C | 82% | 1018 hPa | 0 mm | - | - | - |
| 1778074614 | 18.89° C | 87% | 1016 hPa | 0 mm | - | - | - |
| 1778072212 | 19.44° C | 85% | 1017 hPa | 0 mm | - | - | - |
| 1778066207 | 16.11° C | 90% | 1017 hPa | 0 mm | - | - | - |
| 1778062604 | 16.11° C | 90% | 1016 hPa | 0 mm | - | - | - |
| 1778061403 | 16.11° C | 90% | 1015 hPa | 0 mm | - | - | - |
| 1778057800 | 16.67° C | 90% | 1015 hPa | 0 mm | - | - | - |
| 1778055398 | 16.67° C | 90% | 1015 hPa | 0 mm | - | - | - |
| 1778045790 | 17.22° C | 87% | 1015 hPa | 0 mm | - | - | - |
| 1778043388 | 17.22° C | 86% | 1016 hPa | 0 mm | - | - | - |
| 1778042187 | 17.78° C | 86% | 1016 hPa | 0 mm | - | - | - |
| 1778040986 | 17.78° C | 86% | 1017 hPa | 0 mm | - | - | - |
| 1778039785 | 17.78° C | 86% | 1016 hPa | 0 mm | - | - | - |
| 1778038584 | 17.78° C | 86% | 1016 hPa | 0 mm | - | - | - |
| 1778037383 | 18.33° C | 86% | 1017 hPa | 0 mm | - | - | - |
| 1778036182 | 18.33° C | 85% | 1016 hPa | 0 mm | - | - | - |
| 1778031378 | 19.44° C | 83% | 1015 hPa | 0 mm | - | - | - |
| 1778026574 | 19.44° C | 83% | 1012 hPa | 0 mm | - | - | - |
| 1778025373 | 19.44° C | 83% | 1012 hPa | 0 mm | - | - | - |
| 1778024172 | 19.44° C | 83% | 1012 hPa | 0 mm | - | - | - |
| 1778022971 | 19.44° C | 83% | 1012 hPa | 0 mm | - | - | - |
| 1778021770 | 20° C | 83% | 1011 hPa | 0 mm | - | - | - |
| 1778018167 | 20° C | 83% | 1010 hPa | 0 mm | - | - | - |
| 1778007359 | 25° C | 71% | 1010 hPa | 0 mm | - | - | - |
| 1778004957 | 25° C | 71% | 1012 hPa | 0 mm | - | - | - |
* Rain latest hour (hover to see other rain measurements)
** Current wind speed in m/s (hover to see current wind gust speed)